createdAt,value
2022-11-05T00:03:29.500Z,78.38
2022-11-05T00:08:49.666Z,78.29
2022-11-05T00:14:09.588Z,78.50
2022-11-05T00:19:11.181Z,78.07
2022-11-05T00:24:31.673Z,77.89
2022-11-05T00:29:33.259Z,77.70
2022-11-05T00:34:34.746Z,77.67
2022-11-05T00:39:36.401Z,77.42
2022-11-05T00:44:57.053Z,77.73
2022-11-05T00:49:58.536Z,77.84
2022-11-05T00:55:00.182Z,77.97
2022-11-05T01:00:01.646Z,77.90
2022-11-05T01:05:03.759Z,77.97
2022-11-05T01:10:06.013Z,78.11
2022-11-05T01:15:08.070Z,77.75
2022-11-05T01:20:10.599Z,78.19
2022-11-05T01:25:12.097Z,78.38
2022-11-05T01:30:14.294Z,78.38
2022-11-05T01:35:17.788Z,78.34
2022-11-05T01:40:21.301Z,77.86
2022-11-05T01:45:25.489Z,78.12
2022-11-05T01:50:31.351Z,78.00
2022-11-05T01:55:36.857Z,77.88
2022-11-05T02:00:41.087Z,77.89
2022-11-05T02:05:43.494Z,78.32
2022-11-05T02:10:46.195Z,78.05
2022-11-05T02:16:08.644Z,77.69
2022-11-05T02:21:34.333Z,78.34
2022-11-05T02:26:50.214Z,77.97
2022-11-05T02:31:59.558Z,77.83
2022-11-05T02:37:14.528Z,77.91
2022-11-05T02:42:18.693Z,78.14
2022-11-05T02:47:33.805Z,78.07
2022-11-05T02:52:53.670Z,78.32
2022-11-05T02:57:55.317Z,78.34
2022-11-05T03:02:57.551Z,77.99
2022-11-05T03:08:10.488Z,78.49
2022-11-05T03:13:25.410Z,78.67
2022-11-05T03:18:52.563Z,79.13
2022-11-05T03:24:02.164Z,79.47
2022-11-05T03:29:09.989Z,79.12
2022-11-05T03:34:14.125Z,79.28
2022-11-05T03:39:23.102Z,79.34
2022-11-05T03:44:28.636Z,79.11
2022-11-05T03:49:36.469Z,78.91
2022-11-05T03:54:38.131Z,78.98
2022-11-05T03:59:43.581Z,78.54
2022-11-05T04:04:46.353Z,78.53
2022-11-05T04:10:07.324Z,78.98
2022-11-05T04:15:09.108Z,78.93
2022-11-05T04:20:29.429Z,78.49
2022-11-05T04:25:30.945Z,78.53
2022-11-05T04:30:32.395Z,78.18
2022-11-05T04:35:46.044Z,78.10
2022-11-05T04:40:48.219Z,78.46
2022-11-05T04:45:49.725Z,78.27
2022-11-05T04:50:51.148Z,77.83
2022-11-05T04:55:52.667Z,78.06
2022-11-05T05:00:56.666Z,77.90
2022-11-05T05:06:04.056Z,77.79
2022-11-05T05:11:11.344Z,77.05
2022-11-05T05:16:38.995Z,77.44
2022-11-05T05:21:41.005Z,76.94
2022-11-05T05:26:46.347Z,76.89
2022-11-05T05:31:47.867Z,76.94
2022-11-05T05:36:49.420Z,76.67
2022-11-05T05:41:51.315Z,76.91
2022-11-05T05:46:55.458Z,77.16
2022-11-05T05:51:57.480Z,77.34
2022-11-05T05:56:58.981Z,77.17
2022-11-05T06:02:00.722Z,77.40
2022-11-05T06:07:02.777Z,77.15
2022-11-05T06:12:04.618Z,77.04
2022-11-05T06:17:08.780Z,76.84
2022-11-05T06:22:10.571Z,77.16
2022-11-05T06:27:12.069Z,76.37
2022-11-05T06:32:13.571Z,75.89
2022-11-05T06:37:15.017Z,75.65
2022-11-05T06:42:19.089Z,75.72
2022-11-05T06:47:21.261Z,75.83
2022-11-05T06:52:22.840Z,75.71
2022-11-05T06:57:24.400Z,76.03
2022-11-05T07:02:25.954Z,76.15
2022-11-05T07:07:27.565Z,76.02
2022-11-05T07:12:29.048Z,75.98
2022-11-05T07:17:30.591Z,75.62
2022-11-05T07:22:32.521Z,76.16
2022-11-05T07:27:39.138Z,75.98
2022-11-05T07:32:41.145Z,75.58
2022-11-05T07:37:47.510Z,75.69
2022-11-05T07:42:53.937Z,75.28
2022-11-05T07:48:00.736Z,75.06
2022-11-05T07:53:07.659Z,74.85
2022-11-05T07:58:11.036Z,74.95
2022-11-05T08:03:15.003Z,74.11
2022-11-05T08:08:18.680Z,74.10
2022-11-05T08:13:20.145Z,74.22
2022-11-05T08:18:22.990Z,73.53
2022-11-05T08:23:24.632Z,73.40
2022-11-05T08:28:27.786Z,73.21
2022-11-05T08:33:31.393Z,73.20
2022-11-05T08:38:33.103Z,72.95
2022-11-05T08:43:34.670Z,72.78
2022-11-05T08:48:36.297Z,72.45
2022-11-05T08:53:37.855Z,71.91
2022-11-05T08:58:39.530Z,71.89
2022-11-05T09:03:41.557Z,71.47
2022-11-05T09:08:45.551Z,71.67
2022-11-05T09:13:47.208Z,70.60
2022-11-05T09:18:50.435Z,70.88
2022-11-05T09:23:51.876Z,71.35
2022-11-05T09:28:53.976Z,71.42
2022-11-05T09:33:55.531Z,71.21
2022-11-05T09:38:56.914Z,71.04
2022-11-05T09:44:04.452Z,70.99
2022-11-05T09:49:12.324Z,70.16
2022-11-05T09:54:15.183Z,69.95
2022-11-05T09:59:51.973Z,69.39
2022-11-05T10:04:56.861Z,69.22
2022-11-05T10:10:02.286Z,68.42
2022-11-05T10:15:22.271Z,67.75
2022-11-05T10:20:33.581Z,67.63
2022-11-05T10:25:41.091Z,67.68
2022-11-05T10:30:44.239Z,67.77
2022-11-05T10:35:53.926Z,67.06
2022-11-05T10:41:08.534Z,67.27
2022-11-05T10:46:28.686Z,67.12
2022-11-05T10:51:31.945Z,67.24
2022-11-05T10:56:36.582Z,66.89
2022-11-05T11:01:38.165Z,67.04
2022-11-05T11:06:47.862Z,66.48
2022-11-05T11:12:01.087Z,65.56
2022-11-05T11:17:27.884Z,65.19
2022-11-05T11:22:29.608Z,65.35
2022-11-05T11:27:34.294Z,64.00
2022-11-05T11:32:39.870Z,63.61
2022-11-05T11:37:42.066Z,63.10
2022-11-05T11:42:49.148Z,62.20
2022-11-05T11:47:50.940Z,61.81
2022-11-05T11:52:52.291Z,61.56
2022-11-05T11:58:06.383Z,60.43
2022-11-05T12:03:32.597Z,60.56
2022-11-05T12:08:42.989Z,59.95
2022-11-05T12:14:02.210Z,59.15
2022-11-05T12:19:45.678Z,59.23
2022-11-05T12:24:52.459Z,58.99
2022-11-05T12:30:02.441Z,59.47
2022-11-05T12:35:14.589Z,59.44
2022-11-05T12:40:31.613Z,60.01
2022-11-05T12:45:50.601Z,59.84
2022-11-05T12:50:59.280Z,59.68
2022-11-05T12:56:06.591Z,59.55
2022-11-05T13:01:17.861Z,59.15
2022-11-05T13:06:25.452Z,59.21
2022-11-05T13:11:36.126Z,59.65
2022-11-05T13:16:42.541Z,60.11
2022-11-05T13:21:48.136Z,59.84
2022-11-05T13:26:55.167Z,60.02
2022-11-05T13:32:02.826Z,60.45
2022-11-05T13:37:25.242Z,59.98
2022-11-05T13:43:07.422Z,59.85
2022-11-05T13:48:27.121Z,59.35
2022-11-05T13:53:47.006Z,59.20
2022-11-05T13:59:23.426Z,59.16
2022-11-05T14:04:36.058Z,59.91
2022-11-05T14:09:39.827Z,60.32
2022-11-05T14:14:46.490Z,60.36
2022-11-05T14:20:05.458Z,60.92
2022-11-05T14:25:19.160Z,60.73
2022-11-05T14:30:41.226Z,60.94
2022-11-05T14:35:43.221Z,61.30
2022-11-05T14:40:45.940Z,61.32
2022-11-05T14:46:02.443Z,61.25
2022-11-05T14:51:25.587Z,61.32
2022-11-05T14:56:27.084Z,61.70
2022-11-05T15:01:31.593Z,61.63
2022-11-05T15:06:36.199Z,61.62
2022-11-05T15:11:56.809Z,61.66
2022-11-05T15:17:14.060Z,61.88
2022-11-05T15:22:25.884Z,61.81
2022-11-05T15:27:50.157Z,61.77
2022-11-05T15:32:52.126Z,61.13
2022-11-05T15:38:01.781Z,61.55
2022-11-05T15:43:17.347Z,60.62
2022-11-05T15:48:19.719Z,60.98
2022-11-05T15:59:03.545Z,61.75
2022-11-05T16:04:19.577Z,61.74
2022-11-05T16:09:27.183Z,62.38
2022-11-05T16:14:35.063Z,62.34
2022-11-05T16:19:40.697Z,62.26
2022-11-05T16:24:43.173Z,62.67
2022-11-05T16:29:56.088Z,62.67
2022-11-05T16:35:02.834Z,62.96
2022-11-05T16:40:15.195Z,63.23
2022-11-05T16:45:18.787Z,63.94
2022-11-05T16:50:31.898Z,64.06
2022-11-05T16:55:36.166Z,64.07
2022-11-05T17:00:38.703Z,64.68
2022-11-05T17:05:40.115Z,65.05
2022-11-05T17:10:41.512Z,64.94
2022-11-05T17:15:45.452Z,65.48
2022-11-05T17:20:52.128Z,65.86
2022-11-05T17:25:56.055Z,66.00
2022-11-05T17:31:02.178Z,66.17
2022-11-05T17:36:08.605Z,66.69
2022-11-05T17:41:12.569Z,66.62
2022-11-05T17:46:16.453Z,66.97
2022-11-05T17:51:19.601Z,67.31
2022-11-05T17:56:30.598Z,67.46
2022-11-05T18:01:43.080Z,67.68
2022-11-05T18:06:44.772Z,68.03
2022-11-05T18:11:46.463Z,68.51
2022-11-05T18:16:48.203Z,68.27
2022-11-05T18:21:49.665Z,68.37
2022-11-05T18:26:51.154Z,68.60
2022-11-05T18:31:52.519Z,68.25
2022-11-05T18:36:56.550Z,68.88
2022-11-05T18:41:58.204Z,68.83
2022-11-05T18:46:59.566Z,68.91
2022-11-05T18:52:00.925Z,69.01
2022-11-05T18:57:02.490Z,68.73
2022-11-05T19:02:04.133Z,68.76
2022-11-05T19:07:07.033Z,69.00
2022-11-05T19:12:08.504Z,69.39
2022-11-05T19:17:10.363Z,69.18
2022-11-05T19:22:11.773Z,69.20
2022-11-05T19:27:13.150Z,68.88
2022-11-05T19:32:14.813Z,69.13
2022-11-05T19:37:16.188Z,69.36
2022-11-05T19:42:17.604Z,69.17
2022-11-05T19:47:18.974Z,69.52
2022-11-05T19:52:20.567Z,69.35
2022-11-05T19:57:21.942Z,69.54
2022-11-05T20:02:23.422Z,69.25
2022-11-05T20:07:24.881Z,69.38
2022-11-05T20:12:26.269Z,69.59
2022-11-05T20:17:27.795Z,69.26
2022-11-05T20:22:29.192Z,69.36
2022-11-05T20:27:30.525Z,69.27
2022-11-05T20:32:31.927Z,69.54
2022-11-05T20:37:33.317Z,69.51
2022-11-05T20:42:36.360Z,69.68
2022-11-05T20:47:37.685Z,69.99
2022-11-05T20:52:39.040Z,70.05
2022-11-05T20:57:40.379Z,70.16
2022-11-05T21:02:42.024Z,69.98
2022-11-05T21:07:44.275Z,70.13
2022-11-05T21:12:45.619Z,69.79
2022-11-05T21:17:46.987Z,69.78
2022-11-05T21:22:48.591Z,69.78
2022-11-05T21:27:49.917Z,70.00
2022-11-05T21:32:52.007Z,69.71
2022-11-05T21:37:53.468Z,69.94
2022-11-05T21:42:54.818Z,69.70
2022-11-05T21:47:56.658Z,70.11
2022-11-05T21:53:16.574Z,69.75
2022-11-05T21:58:37.017Z,69.85
2022-11-05T22:03:38.453Z,70.07
2022-11-05T22:08:39.801Z,69.43
2022-11-05T22:13:41.138Z,69.74
2022-11-05T22:18:42.508Z,69.81
2022-11-05T22:23:43.856Z,70.03
2022-11-05T22:28:45.379Z,69.94
2022-11-05T22:33:46.992Z,69.71
2022-11-05T22:38:48.362Z,69.74
2022-11-05T22:43:50.081Z,70.02
2022-11-05T22:48:52.252Z,69.95
2022-11-05T22:53:54.838Z,70.17
2022-11-05T22:58:56.991Z,70.25
2022-11-05T23:03:59.053Z,70.06
2022-11-05T23:09:19.464Z,70.21
2022-11-05T23:14:20.807Z,70.57
2022-11-05T23:19:41.356Z,70.31
2022-11-05T23:24:42.828Z,70.22
2022-11-05T23:29:44.190Z,70.44
2022-11-05T23:34:45.520Z,70.28
2022-11-05T23:39:46.925Z,70.17
2022-11-05T23:45:10.339Z,70.26
2022-11-05T23:50:14.504Z,70.51
2022-11-05T23:55:15.935Z,70.75
